sensor_id;sensor_type;location;lat;lon;timestamp;P1;durP1;ratioP1;P2;durP2;ratioP2
44197;SDS011;30157;55.512;37.764;2024-03-02T00:00:28;47.10;;;23.83;;
44197;SDS011;30157;55.512;37.764;2024-03-02T00:02:54;41.28;;;22.02;;
44197;SDS011;30157;55.512;37.764;2024-03-02T00:05:21;43.67;;;22.90;;
44197;SDS011;30157;55.512;37.764;2024-03-02T00:07:52;47.03;;;23.73;;
44197;SDS011;30157;55.512;37.764;2024-03-02T00:10:19;44.53;;;23.42;;
44197;SDS011;30157;55.512;37.764;2024-03-02T00:12:48;44.72;;;22.48;;
44197;SDS011;30157;55.512;37.764;2024-03-02T00:18:05;44.15;;;22.75;;
44197;SDS011;30157;55.512;37.764;2024-03-02T00:20:31;48.05;;;23.10;;
44197;SDS011;30157;55.512;37.764;2024-03-02T00:23:01;46.30;;;22.67;;
44197;SDS011;30157;55.512;37.764;2024-03-02T00:25:37;41.75;;;22.02;;
44197;SDS011;30157;55.512;37.764;2024-03-02T00:28:14;43.28;;;22.60;;
44197;SDS011;30157;55.512;37.764;2024-03-02T00:30:49;50.53;;;23.35;;
44197;SDS011;30157;55.512;37.764;2024-03-02T00:33:19;46.95;;;24.95;;
44197;SDS011;30157;55.512;37.764;2024-03-02T00:35:46;48.78;;;24.52;;
44197;SDS011;30157;55.512;37.764;2024-03-02T00:38:13;46.33;;;23.95;;
44197;SDS011;30157;55.512;37.764;2024-03-02T00:40:41;50.38;;;25.25;;
44197;SDS011;30157;55.512;37.764;2024-03-02T00:43:41;45.20;;;23.63;;
44197;SDS011;30157;55.512;37.764;2024-03-02T00:46:20;49.17;;;24.92;;
44197;SDS011;30157;55.512;37.764;2024-03-02T00:48:48;44.08;;;23.27;;
44197;SDS011;30157;55.512;37.764;2024-03-02T00:51:14;43.15;;;22.42;;
44197;SDS011;30157;55.512;37.764;2024-03-02T00:53:40;46.50;;;23.02;;
44197;SDS011;30157;55.512;37.764;2024-03-02T00:56:07;48.63;;;24.33;;
44197;SDS011;30157;55.512;37.764;2024-03-02T00:58:35;50.65;;;24.75;;
44197;SDS011;30157;55.512;37.764;2024-03-02T01:01:01;48.38;;;24.75;;
44197;SDS011;30157;55.512;37.764;2024-03-02T01:03:27;46.25;;;24.33;;
44197;SDS011;30157;55.512;37.764;2024-03-02T01:05:52;46.72;;;24.23;;
44197;SDS011;30157;55.512;37.764;2024-03-02T01:08:18;44.05;;;23.15;;
44197;SDS011;30157;55.512;37.764;2024-03-02T01:10:44;48.05;;;23.55;;
44197;SDS011;30157;55.512;37.764;2024-03-02T01:13:09;47.05;;;23.70;;
44197;SDS011;30157;55.512;37.764;2024-03-02T01:15:35;44.88;;;23.65;;
44197;SDS011;30157;55.512;37.764;2024-03-02T01:18:01;45.88;;;24.80;;
44197;SDS011;30157;55.512;37.764;2024-03-02T01:20:27;48.28;;;24.25;;
44197;SDS011;30157;55.512;37.764;2024-03-02T01:22:53;45.55;;;23.55;;
44197;SDS011;30157;55.512;37.764;2024-03-02T01:25:18;48.65;;;24.13;;
44197;SDS011;30157;55.512;37.764;2024-03-02T01:27:44;49.60;;;25.70;;
44197;SDS011;30157;55.512;37.764;2024-03-02T01:30:11;51.15;;;25.60;;
44197;SDS011;30157;55.512;37.764;2024-03-02T01:32:39;49.85;;;24.70;;
44197;SDS011;30157;55.512;37.764;2024-03-02T01:35:05;46.30;;;23.98;;
44197;SDS011;30157;55.512;37.764;2024-03-02T01:37:32;47.47;;;24.27;;
44197;SDS011;30157;55.512;37.764;2024-03-02T01:39:58;44.75;;;22.80;;
44197;SDS011;30157;55.512;37.764;2024-03-02T01:42:24;45.08;;;23.92;;
44197;SDS011;30157;55.512;37.764;2024-03-02T01:44:50;45.92;;;22.55;;
44197;SDS011;30157;55.512;37.764;2024-03-02T01:47:16;52.22;;;23.95;;
44197;SDS011;30157;55.512;37.764;2024-03-02T01:49:42;42.30;;;23.13;;
44197;SDS011;30157;55.512;37.764;2024-03-02T01:52:08;48.80;;;24.27;;
44197;SDS011;30157;55.512;37.764;2024-03-02T01:54:33;42.00;;;22.80;;
44197;SDS011;30157;55.512;37.764;2024-03-02T01:56:59;44.65;;;23.63;;
44197;SDS011;30157;55.512;37.764;2024-03-02T01:59:26;47.72;;;23.27;;
44197;SDS011;30157;55.512;37.764;2024-03-02T02:01:52;45.60;;;23.38;;
44197;SDS011;30157;55.512;37.764;2024-03-02T02:04:18;45.90;;;23.02;;
44197;SDS011;30157;55.512;37.764;2024-03-02T02:06:44;43.88;;;23.38;;
44197;SDS011;30157;55.512;37.764;2024-03-02T02:09:09;43.38;;;23.10;;
44197;SDS011;30157;55.512;37.764;2024-03-02T02:11:35;47.13;;;23.92;;
44197;SDS011;30157;55.512;37.764;2024-03-02T02:14:01;47.28;;;23.50;;
44197;SDS011;30157;55.512;37.764;2024-03-02T02:16:27;48.92;;;23.20;;
44197;SDS011;30157;55.512;37.764;2024-03-02T02:18:53;46.00;;;24.42;;
44197;SDS011;30157;55.512;37.764;2024-03-02T02:21:22;46.22;;;24.42;;
44197;SDS011;30157;55.512;37.764;2024-03-02T02:23:48;47.42;;;24.38;;
44197;SDS011;30157;55.512;37.764;2024-03-02T02:26:13;45.20;;;21.90;;
44197;SDS011;30157;55.512;37.764;2024-03-02T02:28:39;46.00;;;22.60;;
44197;SDS011;30157;55.512;37.764;2024-03-02T02:31:12;46.67;;;23.60;;
44197;SDS011;30157;55.512;37.764;2024-03-02T02:33:39;45.40;;;23.08;;
44197;SDS011;30157;55.512;37.764;2024-03-02T02:36:05;47.38;;;23.77;;
44197;SDS011;30157;55.512;37.764;2024-03-02T02:38:32;46.75;;;23.85;;
44197;SDS011;30157;55.512;37.764;2024-03-02T02:41:02;46.10;;;23.73;;
44197;SDS011;30157;55.512;37.764;2024-03-02T02:43:27;50.28;;;23.50;;
44197;SDS011;30157;55.512;37.764;2024-03-02T02:45:53;46.25;;;23.63;;
44197;SDS011;30157;55.512;37.764;2024-03-02T02:48:19;45.17;;;22.92;;
44197;SDS011;30157;55.512;37.764;2024-03-02T02:50:44;49.05;;;24.02;;
44197;SDS011;30157;55.512;37.764;2024-03-02T02:53:10;46.78;;;23.42;;
44197;SDS011;30157;55.512;37.764;2024-03-02T02:55:36;48.13;;;24.20;;
44197;SDS011;30157;55.512;37.764;2024-03-02T02:58:06;45.97;;;24.45;;
44197;SDS011;30157;55.512;37.764;2024-03-02T03:00:32;45.28;;;23.65;;
44197;SDS011;30157;55.512;37.764;2024-03-02T03:02:58;46.78;;;24.52;;
44197;SDS011;30157;55.512;37.764;2024-03-02T03:05:24;40.90;;;23.20;;
44197;SDS011;30157;55.512;37.764;2024-03-02T03:07:50;50.20;;;25.40;;
44197;SDS011;30157;55.512;37.764;2024-03-02T03:10:16;46.13;;;24.88;;
44197;SDS011;30157;55.512;37.764;2024-03-02T03:12:42;53.25;;;26.55;;
44197;SDS011;30157;55.512;37.764;2024-03-02T03:15:08;49.58;;;24.85;;
44197;SDS011;30157;55.512;37.764;2024-03-02T03:17:35;47.13;;;24.80;;
44197;SDS011;30157;55.512;37.764;2024-03-02T03:20:02;46.72;;;24.23;;
44197;SDS011;30157;55.512;37.764;2024-03-02T03:22:30;51.72;;;25.90;;
44197;SDS011;30157;55.512;37.764;2024-03-02T03:24:57;50.22;;;25.73;;
44197;SDS011;30157;55.512;37.764;2024-03-02T03:27:23;45.08;;;24.08;;
44197;SDS011;30157;55.512;37.764;2024-03-02T03:29:48;52.83;;;25.23;;
44197;SDS011;30157;55.512;37.764;2024-03-02T03:32:14;41.97;;;22.90;;
44197;SDS011;30157;55.512;37.764;2024-03-02T03:34:40;46.85;;;23.17;;
44197;SDS011;30157;55.512;37.764;2024-03-02T03:37:06;45.13;;;23.50;;
44197;SDS011;30157;55.512;37.764;2024-03-02T03:39:33;48.95;;;23.63;;
44197;SDS011;30157;55.512;37.764;2024-03-02T03:41:59;47.90;;;24.48;;
44197;SDS011;30157;55.512;37.764;2024-03-02T03:44:25;42.20;;;23.17;;
44197;SDS011;30157;55.512;37.764;2024-03-02T03:46:51;46.08;;;24.45;;
44197;SDS011;30157;55.512;37.764;2024-03-02T03:49:16;49.28;;;25.58;;
44197;SDS011;30157;55.512;37.764;2024-03-02T03:51:42;44.17;;;23.67;;
44197;SDS011;30157;55.512;37.764;2024-03-02T03:54:08;49.40;;;24.80;;
44197;SDS011;30157;55.512;37.764;2024-03-02T03:56:36;50.13;;;25.45;;
44197;SDS011;30157;55.512;37.764;2024-03-02T03:59:02;49.08;;;25.92;;
44197;SDS011;30157;55.512;37.764;2024-03-02T04:01:30;48.25;;;24.67;;
44197;SDS011;30157;55.512;37.764;2024-03-02T04:03:57;48.72;;;24.23;;
44197;SDS011;30157;55.512;37.764;2024-03-02T04:06:23;46.53;;;24.00;;
44197;SDS011;30157;55.512;37.764;2024-03-02T04:08:49;47.15;;;23.63;;
44197;SDS011;30157;55.512;37.764;2024-03-02T04:11:15;49.90;;;24.60;;
44197;SDS011;30157;55.512;37.764;2024-03-02T04:13:43;44.38;;;23.90;;
44197;SDS011;30157;55.512;37.764;2024-03-02T04:16:08;51.00;;;25.85;;
44197;SDS011;30157;55.512;37.764;2024-03-02T04:18:34;47.67;;;24.83;;
44197;SDS011;30157;55.512;37.764;2024-03-02T04:21:00;46.83;;;23.65;;
44197;SDS011;30157;55.512;37.764;2024-03-02T04:23:26;48.45;;;25.40;;
44197;SDS011;30157;55.512;37.764;2024-03-02T04:25:52;48.08;;;23.70;;
44197;SDS011;30157;55.512;37.764;2024-03-02T04:28:17;47.03;;;25.20;;
44197;SDS011;30157;55.512;37.764;2024-03-02T04:30:43;46.63;;;24.23;;
44197;SDS011;30157;55.512;37.764;2024-03-02T04:33:09;53.55;;;26.17;;
44197;SDS011;30157;55.512;37.764;2024-03-02T04:35:38;47.20;;;23.88;;
44197;SDS011;30157;55.512;37.764;2024-03-02T04:38:04;49.92;;;25.45;;
44197;SDS011;30157;55.512;37.764;2024-03-02T04:40:30;50.10;;;27.40;;
44197;SDS011;30157;55.512;37.764;2024-03-02T04:42:57;51.97;;;24.38;;
44197;SDS011;30157;55.512;37.764;2024-03-02T04:45:24;52.58;;;25.65;;
44197;SDS011;30157;55.512;37.764;2024-03-02T04:47:50;50.67;;;25.33;;
44197;SDS011;30157;55.512;37.764;2024-03-02T04:50:16;49.90;;;25.83;;
44197;SDS011;30157;55.512;37.764;2024-03-02T04:52:41;50.88;;;25.17;;
44197;SDS011;30157;55.512;37.764;2024-03-02T04:55:07;53.30;;;26.52;;
44197;SDS011;30157;55.512;37.764;2024-03-02T04:57:55;48.80;;;26.05;;
44197;SDS011;30157;55.512;37.764;2024-03-02T05:00:21;52.63;;;25.30;;
44197;SDS011;30157;55.512;37.764;2024-03-02T05:02:47;52.13;;;28.08;;
44197;SDS011;30157;55.512;37.764;2024-03-02T05:05:12;59.67;;;29.55;;
44197;SDS011;30157;55.512;37.764;2024-03-02T05:07:43;53.17;;;27.83;;
44197;SDS011;30157;55.512;37.764;2024-03-02T05:10:09;48.58;;;25.20;;
44197;SDS011;30157;55.512;37.764;2024-03-02T05:12:37;47.50;;;25.27;;
44197;SDS011;30157;55.512;37.764;2024-03-02T05:15:09;50.58;;;25.48;;
44197;SDS011;30157;55.512;37.764;2024-03-02T05:17:41;48.28;;;25.75;;
44197;SDS011;30157;55.512;37.764;2024-03-02T05:20:08;50.38;;;24.55;;
44197;SDS011;30157;55.512;37.764;2024-03-02T05:22:35;49.30;;;26.27;;
44197;SDS011;30157;55.512;37.764;2024-03-02T05:25:01;47.55;;;25.80;;
44197;SDS011;30157;55.512;37.764;2024-03-02T05:27:30;48.28;;;25.90;;
44197;SDS011;30157;55.512;37.764;2024-03-02T05:29:59;46.22;;;24.58;;
44197;SDS011;30157;55.512;37.764;2024-03-02T05:32:25;51.33;;;26.48;;
44197;SDS011;30157;55.512;37.764;2024-03-02T05:34:51;48.58;;;25.50;;
44197;SDS011;30157;55.512;37.764;2024-03-02T05:37:17;53.00;;;26.02;;
44197;SDS011;30157;55.512;37.764;2024-03-02T05:39:45;52.00;;;25.35;;
44197;SDS011;30157;55.512;37.764;2024-03-02T05:42:11;46.80;;;26.20;;
44197;SDS011;30157;55.512;37.764;2024-03-02T05:44:36;46.38;;;25.15;;
44197;SDS011;30157;55.512;37.764;2024-03-02T05:47:02;51.97;;;26.88;;
44197;SDS011;30157;55.512;37.764;2024-03-02T05:49:29;47.00;;;25.63;;
44197;SDS011;30157;55.512;37.764;2024-03-02T05:51:55;41.03;;;23.67;;
44197;SDS011;30157;55.512;37.764;2024-03-02T05:54:21;43.80;;;25.58;;
44197;SDS011;30157;55.512;37.764;2024-03-02T05:56:47;43.25;;;25.05;;
44197;SDS011;30157;55.512;37.764;2024-03-02T05:59:13;40.63;;;23.88;;
44197;SDS011;30157;55.512;37.764;2024-03-02T06:01:40;46.22;;;23.38;;
44197;SDS011;30157;55.512;37.764;2024-03-02T06:04:08;43.95;;;24.40;;
44197;SDS011;30157;55.512;37.764;2024-03-02T06:06:36;45.70;;;24.38;;
44197;SDS011;30157;55.512;37.764;2024-03-02T06:09:03;40.17;;;22.35;;
44197;SDS011;30157;55.512;37.764;2024-03-02T06:11:40;39.47;;;22.13;;
44197;SDS011;30157;55.512;37.764;2024-03-02T06:14:06;40.97;;;22.63;;
44197;SDS011;30157;55.512;37.764;2024-03-02T06:16:33;37.25;;;20.35;;
44197;SDS011;30157;55.512;37.764;2024-03-02T06:19:00;44.40;;;24.73;;
44197;SDS011;30157;55.512;37.764;2024-03-02T06:21:27;39.65;;;22.00;;
44197;SDS011;30157;55.512;37.764;2024-03-02T06:23:53;35.55;;;21.35;;
44197;SDS011;30157;55.512;37.764;2024-03-02T06:26:19;36.30;;;21.25;;
44197;SDS011;30157;55.512;37.764;2024-03-02T06:28:45;37.30;;;20.15;;
44197;SDS011;30157;55.512;37.764;2024-03-02T06:31:11;37.10;;;20.70;;
44197;SDS011;30157;55.512;37.764;2024-03-02T06:33:37;36.30;;;19.35;;
44197;SDS011;30157;55.512;37.764;2024-03-02T06:36:03;32.78;;;20.45;;
44197;SDS011;30157;55.512;37.764;2024-03-02T06:38:29;37.97;;;21.23;;
44197;SDS011;30157;55.512;37.764;2024-03-02T06:40:57;39.20;;;20.60;;
44197;SDS011;30157;55.512;37.764;2024-03-02T06:43:23;33.28;;;18.38;;
44197;SDS011;30157;55.512;37.764;2024-03-02T06:45:49;35.15;;;21.83;;
44197;SDS011;30157;55.512;37.764;2024-03-02T06:48:16;34.15;;;20.40;;
44197;SDS011;30157;55.512;37.764;2024-03-02T06:50:49;36.38;;;20.88;;
44197;SDS011;30157;55.512;37.764;2024-03-02T06:53:16;39.83;;;20.98;;
44197;SDS011;30157;55.512;37.764;2024-03-02T06:55:43;37.22;;;21.20;;
44197;SDS011;30157;55.512;37.764;2024-03-02T06:58:13;31.95;;;19.33;;
44197;SDS011;30157;55.512;37.764;2024-03-02T07:00:41;34.08;;;18.90;;
44197;SDS011;30157;55.512;37.764;2024-03-02T07:03:07;28.95;;;15.90;;
44197;SDS011;30157;55.512;37.764;2024-03-02T07:05:33;28.38;;;17.80;;
44197;SDS011;30157;55.512;37.764;2024-03-02T07:07:59;35.92;;;21.80;;
44197;SDS011;30157;55.512;37.764;2024-03-02T07:10:27;33.50;;;20.02;;
44197;SDS011;30157;55.512;37.764;2024-03-02T07:12:52;30.02;;;17.27;;
44197;SDS011;30157;55.512;37.764;2024-03-02T07:15:18;33.63;;;19.02;;
44197;SDS011;30157;55.512;37.764;2024-03-02T07:17:50;34.90;;;22.40;;
44197;SDS011;30157;55.512;37.764;2024-03-02T07:20:16;31.52;;;20.20;;
44197;SDS011;30157;55.512;37.764;2024-03-02T07:22:42;32.50;;;18.35;;
44197;SDS011;30157;55.512;37.764;2024-03-02T07:25:08;36.45;;;21.90;;
44197;SDS011;30157;55.512;37.764;2024-03-02T07:27:34;31.60;;;18.25;;
44197;SDS011;30157;55.512;37.764;2024-03-02T07:30:02;32.42;;;18.75;;
44197;SDS011;30157;55.512;37.764;2024-03-02T07:32:30;34.85;;;21.85;;
44197;SDS011;30157;55.512;37.764;2024-03-02T07:34:55;37.70;;;22.20;;
44197;SDS011;30157;55.512;37.764;2024-03-02T07:37:24;37.35;;;21.95;;
44197;SDS011;30157;55.512;37.764;2024-03-02T07:39:50;40.60;;;21.88;;
44197;SDS011;30157;55.512;37.764;2024-03-02T07:42:16;39.78;;;24.20;;
44197;SDS011;30157;55.512;37.764;2024-03-02T07:44:45;42.40;;;23.10;;
44197;SDS011;30157;55.512;37.764;2024-03-02T07:47:11;41.08;;;23.52;;
44197;SDS011;30157;55.512;37.764;2024-03-02T07:49:37;40.53;;;23.30;;
44197;SDS011;30157;55.512;37.764;2024-03-02T07:52:03;39.90;;;21.65;;
44197;SDS011;30157;55.512;37.764;2024-03-02T07:54:29;33.83;;;19.42;;
44197;SDS011;30157;55.512;37.764;2024-03-02T07:56:56;38.10;;;22.40;;
44197;SDS011;30157;55.512;37.764;2024-03-02T07:59:22;44.63;;;25.40;;
44197;SDS011;30157;55.512;37.764;2024-03-02T08:01:48;36.95;;;22.38;;
44197;SDS011;30157;55.512;37.764;2024-03-02T08:04:15;43.72;;;24.73;;
44197;SDS011;30157;55.512;37.764;2024-03-02T08:06:41;42.33;;;24.20;;
44197;SDS011;30157;55.512;37.764;2024-03-02T08:09:07;39.47;;;23.75;;
44197;SDS011;30157;55.512;37.764;2024-03-02T08:11:36;45.85;;;24.08;;
44197;SDS011;30157;55.512;37.764;2024-03-02T08:14:03;42.80;;;23.42;;
44197;SDS011;30157;55.512;37.764;2024-03-02T08:16:28;37.78;;;22.33;;
44197;SDS011;30157;55.512;37.764;2024-03-02T08:18:54;44.47;;;24.27;;
44197;SDS011;30157;55.512;37.764;2024-03-02T08:21:23;35.35;;;21.33;;
44197;SDS011;30157;55.512;37.764;2024-03-02T08:23:49;35.33;;;20.63;;
44197;SDS011;30157;55.512;37.764;2024-03-02T08:26:16;40.35;;;23.30;;
44197;SDS011;30157;55.512;37.764;2024-03-02T08:28:41;35.78;;;21.23;;
44197;SDS011;30157;55.512;37.764;2024-03-02T08:31:07;39.08;;;22.42;;
44197;SDS011;30157;55.512;37.764;2024-03-02T08:33:33;41.40;;;25.30;;
44197;SDS011;30157;55.512;37.764;2024-03-02T08:36:00;39.00;;;23.25;;
44197;SDS011;30157;55.512;37.764;2024-03-02T08:38:26;33.67;;;20.73;;
44197;SDS011;30157;55.512;37.764;2024-03-02T08:40:52;34.53;;;22.50;;
44197;SDS011;30157;55.512;37.764;2024-03-02T08:43:18;37.67;;;21.58;;
44197;SDS011;30157;55.512;37.764;2024-03-02T08:45:45;35.03;;;21.25;;
44197;SDS011;30157;55.512;37.764;2024-03-02T08:48:12;35.05;;;22.35;;
44197;SDS011;30157;55.512;37.764;2024-03-02T08:50:38;37.10;;;23.05;;
44197;SDS011;30157;55.512;37.764;2024-03-02T08:53:04;35.47;;;20.33;;
44197;SDS011;30157;55.512;37.764;2024-03-02T08:55:30;33.40;;;20.83;;
44197;SDS011;30157;55.512;37.764;2024-03-02T08:57:56;44.95;;;28.80;;
44197;SDS011;30157;55.512;37.764;2024-03-02T09:00:22;36.83;;;22.83;;
44197;SDS011;30157;55.512;37.764;2024-03-02T09:02:48;32.38;;;19.63;;
44197;SDS011;30157;55.512;37.764;2024-03-02T09:05:14;32.83;;;19.02;;
44197;SDS011;30157;55.512;37.764;2024-03-02T09:07:40;29.20;;;16.70;;
44197;SDS011;30157;55.512;37.764;2024-03-02T09:10:07;28.17;;;17.25;;
44197;SDS011;30157;55.512;37.764;2024-03-02T09:12:33;33.33;;;20.65;;
44197;SDS011;30157;55.512;37.764;2024-03-02T09:14:59;30.50;;;18.40;;
44197;SDS011;30157;55.512;37.764;2024-03-02T09:17:26;33.97;;;20.95;;
44197;SDS011;30157;55.512;37.764;2024-03-02T09:19:52;30.90;;;18.27;;
44197;SDS011;30157;55.512;37.764;2024-03-02T09:22:18;39.97;;;22.60;;
44197;SDS011;30157;55.512;37.764;2024-03-02T09:24:44;28.50;;;17.55;;
44197;SDS011;30157;55.512;37.764;2024-03-02T09:27:10;39.25;;;23.65;;
44197;SDS011;30157;55.512;37.764;2024-03-02T09:29:36;33.78;;;21.67;;
44197;SDS011;30157;55.512;37.764;2024-03-02T09:32:02;37.50;;;22.63;;
44197;SDS011;30157;55.512;37.764;2024-03-02T09:34:27;37.60;;;22.13;;
44197;SDS011;30157;55.512;37.764;2024-03-02T09:36:53;39.13;;;22.90;;
44197;SDS011;30157;55.512;37.764;2024-03-02T09:39:19;39.33;;;23.15;;
44197;SDS011;30157;55.512;37.764;2024-03-02T09:41:45;45.90;;;28.13;;
44197;SDS011;30157;55.512;37.764;2024-03-02T09:44:12;45.22;;;24.80;;
44197;SDS011;30157;55.512;37.764;2024-03-02T09:46:38;33.17;;;19.80;;
44197;SDS011;30157;55.512;37.764;2024-03-02T09:49:04;37.30;;;22.67;;
44197;SDS011;30157;55.512;37.764;2024-03-02T09:51:30;41.97;;;23.77;;
44197;SDS011;30157;55.512;37.764;2024-03-02T09:53:57;33.30;;;21.08;;
44197;SDS011;30157;55.512;37.764;2024-03-02T09:56:22;45.63;;;28.42;;
44197;SDS011;30157;55.512;37.764;2024-03-02T09:58:48;34.67;;;19.98;;
44197;SDS011;30157;55.512;37.764;2024-03-02T10:01:14;36.88;;;23.95;;
44197;SDS011;30157;55.512;37.764;2024-03-02T10:03:39;26.42;;;17.70;;
44197;SDS011;30157;55.512;37.764;2024-03-02T10:06:24;29.67;;;18.70;;
44197;SDS011;30157;55.512;37.764;2024-03-02T10:08:51;32.05;;;20.13;;
44197;SDS011;30157;55.512;37.764;2024-03-02T10:11:34;35.10;;;19.35;;
44197;SDS011;30157;55.512;37.764;2024-03-02T10:16:39;40.40;;;24.52;;
44197;SDS011;30157;55.512;37.764;2024-03-02T10:19:15;35.45;;;21.63;;
44197;SDS011;30157;55.512;37.764;2024-03-02T10:21:49;36.25;;;22.52;;
44197;SDS011;30157;55.512;37.764;2024-03-02T10:24:20;60.38;;;31.65;;
44197;SDS011;30157;55.512;37.764;2024-03-02T10:26:46;33.92;;;22.15;;
44197;SDS011;30157;55.512;37.764;2024-03-02T10:29:13;73.18;;;36.55;;
44197;SDS011;30157;55.512;37.764;2024-03-02T10:31:39;41.22;;;23.20;;
44197;SDS011;30157;55.512;37.764;2024-03-02T10:34:06;36.38;;;22.02;;
44197;SDS011;30157;55.512;37.764;2024-03-02T10:36:33;44.10;;;26.73;;
44197;SDS011;30157;55.512;37.764;2024-03-02T10:41:30;31.33;;;20.35;;
44197;SDS011;30157;55.512;37.764;2024-03-02T10:43:58;36.75;;;20.75;;
44197;SDS011;30157;55.512;37.764;2024-03-02T10:46:28;33.17;;;21.33;;
44197;SDS011;30157;55.512;37.764;2024-03-02T10:48:58;33.25;;;20.40;;
44197;SDS011;30157;55.512;37.764;2024-03-02T10:51:28;27.63;;;18.13;;
44197;SDS011;30157;55.512;37.764;2024-03-02T10:54:00;29.65;;;18.85;;
44197;SDS011;30157;55.512;37.764;2024-03-02T10:56:29;29.20;;;18.50;;
44197;SDS011;30157;55.512;37.764;2024-03-02T10:58:57;34.42;;;18.38;;
44197;SDS011;30157;55.512;37.764;2024-03-02T11:01:29;31.52;;;18.52;;
44197;SDS011;30157;55.512;37.764;2024-03-02T11:03:56;30.50;;;18.20;;
44197;SDS011;30157;55.512;37.764;2024-03-02T11:06:23;32.80;;;17.77;;
44197;SDS011;30157;55.512;37.764;2024-03-02T11:08:53;33.88;;;17.90;;
44197;SDS011;30157;55.512;37.764;2024-03-02T11:11:27;29.60;;;18.27;;
44197;SDS011;30157;55.512;37.764;2024-03-02T11:13:57;29.25;;;16.77;;
44197;SDS011;30157;55.512;37.764;2024-03-02T11:16:36;24.70;;;15.77;;
44197;SDS011;30157;55.512;37.764;2024-03-02T11:19:05;28.00;;;16.83;;
44197;SDS011;30157;55.512;37.764;2024-03-02T11:21:34;28.48;;;15.02;;
44197;SDS011;30157;55.512;37.764;2024-03-02T11:26:50;27.10;;;16.13;;
44197;SDS011;30157;55.512;37.764;2024-03-02T11:32:01;24.75;;;14.23;;
44197;SDS011;30157;55.512;37.764;2024-03-02T11:34:35;24.42;;;15.27;;
44197;SDS011;30157;55.512;37.764;2024-03-02T11:37:01;29.33;;;17.77;;
44197;SDS011;30157;55.512;37.764;2024-03-02T11:39:28;28.10;;;15.25;;
44197;SDS011;30157;55.512;37.764;2024-03-02T11:41:55;25.25;;;15.40;;
44197;SDS011;30157;55.512;37.764;2024-03-02T11:44:22;25.58;;;15.15;;
44197;SDS011;30157;55.512;37.764;2024-03-02T11:47:00;24.73;;;16.10;;
44197;SDS011;30157;55.512;37.764;2024-03-02T11:52:01;22.90;;;14.27;;
44197;SDS011;30157;55.512;37.764;2024-03-02T11:54:27;25.73;;;15.55;;
44197;SDS011;30157;55.512;37.764;2024-03-02T11:56:58;23.58;;;14.70;;
44197;SDS011;30157;55.512;37.764;2024-03-02T11:59:27;23.42;;;14.98;;
44197;SDS011;30157;55.512;37.764;2024-03-02T12:01:54;28.10;;;17.23;;
44197;SDS011;30157;55.512;37.764;2024-03-02T12:04:21;27.25;;;16.35;;
44197;SDS011;30157;55.512;37.764;2024-03-02T12:06:55;30.20;;;16.75;;
44197;SDS011;30157;55.512;37.764;2024-03-02T12:09:25;27.58;;;16.00;;
44197;SDS011;30157;55.512;37.764;2024-03-02T12:12:02;28.25;;;16.50;;
44197;SDS011;30157;55.512;37.764;2024-03-02T12:14:29;33.78;;;16.65;;
44197;SDS011;30157;55.512;37.764;2024-03-02T12:16:55;29.08;;;16.35;;
44197;SDS011;30157;55.512;37.764;2024-03-02T12:19:21;28.48;;;17.17;;
44197;SDS011;30157;55.512;37.764;2024-03-02T12:21:47;25.77;;;15.73;;
44197;SDS011;30157;55.512;37.764;2024-03-02T12:24:13;28.15;;;15.65;;
44197;SDS011;30157;55.512;37.764;2024-03-02T12:26:39;26.25;;;16.08;;
44197;SDS011;30157;55.512;37.764;2024-03-02T12:29:05;27.10;;;16.33;;
44197;SDS011;30157;55.512;37.764;2024-03-02T12:31:33;27.55;;;15.38;;
44197;SDS011;30157;55.512;37.764;2024-03-02T12:33:59;33.40;;;15.98;;
44197;SDS011;30157;55.512;37.764;2024-03-02T12:36:25;31.40;;;16.75;;
44197;SDS011;30157;55.512;37.764;2024-03-02T12:38:54;27.45;;;15.77;;
44197;SDS011;30157;55.512;37.764;2024-03-02T12:41:20;30.40;;;16.48;;
44197;SDS011;30157;55.512;37.764;2024-03-02T12:43:46;29.92;;;17.17;;
44197;SDS011;30157;55.512;37.764;2024-03-02T12:46:12;25.48;;;14.30;;
44197;SDS011;30157;55.512;37.764;2024-03-02T12:48:39;26.27;;;15.38;;
44197;SDS011;30157;55.512;37.764;2024-03-02T12:51:06;26.42;;;16.02;;
44197;SDS011;30157;55.512;37.764;2024-03-02T12:53:32;24.38;;;14.63;;
44197;SDS011;30157;55.512;37.764;2024-03-02T12:55:58;25.10;;;14.13;;
44197;SDS011;30157;55.512;37.764;2024-03-02T12:58:24;24.00;;;14.70;;
44197;SDS011;30157;55.512;37.764;2024-03-02T13:00:49;27.52;;;14.18;;
44197;SDS011;30157;55.512;37.764;2024-03-02T13:03:17;26.48;;;15.13;;
44197;SDS011;30157;55.512;37.764;2024-03-02T13:05:48;29.00;;;15.43;;
44197;SDS011;30157;55.512;37.764;2024-03-02T13:08:15;34.30;;;16.08;;
44197;SDS011;30157;55.512;37.764;2024-03-02T13:10:41;26.30;;;14.00;;
44197;SDS011;30157;55.512;37.764;2024-03-02T13:13:07;24.25;;;13.43;;
44197;SDS011;30157;55.512;37.764;2024-03-02T13:15:33;27.85;;;13.57;;
44197;SDS011;30157;55.512;37.764;2024-03-02T13:18:00;22.05;;;13.43;;
44197;SDS011;30157;55.512;37.764;2024-03-02T13:20:29;31.05;;;14.73;;
44197;SDS011;30157;55.512;37.764;2024-03-02T13:22:57;23.60;;;13.93;;
44197;SDS011;30157;55.512;37.764;2024-03-02T13:25:22;24.35;;;13.52;;
44197;SDS011;30157;55.512;37.764;2024-03-02T13:27:48;30.80;;;14.48;;
44197;SDS011;30157;55.512;37.764;2024-03-02T13:30:14;30.15;;;13.63;;
44197;SDS011;30157;55.512;37.764;2024-03-02T13:32:40;25.73;;;14.32;;
44197;SDS011;30157;55.512;37.764;2024-03-02T13:35:06;24.27;;;13.05;;
44197;SDS011;30157;55.512;37.764;2024-03-02T13:37:32;23.17;;;13.10;;
44197;SDS011;30157;55.512;37.764;2024-03-02T13:39:58;22.65;;;12.75;;
44197;SDS011;30157;55.512;37.764;2024-03-02T13:42:23;22.40;;;11.93;;
44197;SDS011;30157;55.512;37.764;2024-03-02T13:44:49;22.45;;;12.82;;
44197;SDS011;30157;55.512;37.764;2024-03-02T13:47:16;22.38;;;12.20;;
44197;SDS011;30157;55.512;37.764;2024-03-02T13:49:43;20.50;;;12.02;;
44197;SDS011;30157;55.512;37.764;2024-03-02T13:52:11;21.23;;;11.80;;
44197;SDS011;30157;55.512;37.764;2024-03-02T13:54:42;26.05;;;13.23;;
44197;SDS011;30157;55.512;37.764;2024-03-02T13:57:10;20.10;;;12.38;;
44197;SDS011;30157;55.512;37.764;2024-03-02T13:59:36;21.73;;;11.52;;
44197;SDS011;30157;55.512;37.764;2024-03-02T14:02:03;22.92;;;11.50;;
44197;SDS011;30157;55.512;37.764;2024-03-02T14:04:30;18.67;;;11.20;;
44197;SDS011;30157;55.512;37.764;2024-03-02T14:06:58;22.60;;;12.77;;
44197;SDS011;30157;55.512;37.764;2024-03-02T14:09:25;25.73;;;12.23;;
44197;SDS011;30157;55.512;37.764;2024-03-02T14:11:53;22.27;;;10.75;;
44197;SDS011;30157;55.512;37.764;2024-03-02T14:14:19;24.80;;;11.07;;
44197;SDS011;30157;55.512;37.764;2024-03-02T14:16:45;41.85;;;12.60;;
44197;SDS011;30157;55.512;37.764;2024-03-02T14:19:11;17.63;;;10.00;;
44197;SDS011;30157;55.512;37.764;2024-03-02T14:21:39;19.67;;;9.95;;
44197;SDS011;30157;55.512;37.764;2024-03-02T14:24:05;18.90;;;9.90;;